sensor_id;sensor_type;location;lat;lon;timestamp;pressure;altitude;pressure_sealevel;temperature;humidity
75895;BME280;64573;50.328;15.014;2023-06-10T00:38:02;98645.88;;;14.30;97.48
75895;BME280;64573;50.328;15.014;2023-06-10T04:33:13;98743.41;;;14.34;96.16
75895;BME280;64573;50.328;15.014;2023-06-10T04:40:52;98734.88;;;14.37;96.73
75895;BME280;64573;50.328;15.014;2023-06-10T04:43:18;98747.13;;;14.46;96.04
75895;BME280;64573;50.328;15.014;2023-06-10T04:50:53;98745.91;;;14.49;96.15
75895;BME280;64573;50.328;15.014;2023-06-10T04:53:19;98742.97;;;14.50;96.20
75895;BME280;64573;50.328;15.014;2023-06-10T04:55:48;98741.09;;;14.57;96.42
75895;BME280;64573;50.328;15.014;2023-06-10T04:58:16;98742.88;;;14.70;96.14
75895;BME280;64573;50.328;15.014;2023-06-10T05:00:42;98743.66;;;14.90;96.21
75895;BME280;64573;50.328;15.014;2023-06-10T05:13:29;98761.91;;;15.33;94.56
75895;BME280;64573;50.328;15.014;2023-06-10T05:18:30;98771.09;;;15.64;93.06
75895;BME280;64573;50.328;15.014;2023-06-10T05:20:58;98765.00;;;15.75;92.89
75895;BME280;64573;50.328;15.014;2023-06-10T05:31:09;98756.44;;;16.46;91.09
75895;BME280;64573;50.328;15.014;2023-06-10T05:33:35;98753.84;;;16.76;90.21
75895;BME280;64573;50.328;15.014;2023-06-10T05:36:00;98769.69;;;16.91;89.26
75895;BME280;64573;50.328;15.014;2023-06-10T05:38:26;98757.72;;;16.99;87.94
75895;BME280;64573;50.328;15.014;2023-06-10T05:40:51;98764.22;;;17.28;86.88
75895;BME280;64573;50.328;15.014;2023-06-10T05:43:16;98761.59;;;17.51;85.27
75895;BME280;64573;50.328;15.014;2023-06-10T05:45:42;98763.38;;;17.57;83.56
75895;BME280;64573;50.328;15.014;2023-06-10T05:50:42;98765.25;;;17.57;83.98
75895;BME280;64573;50.328;15.014;2023-06-10T05:55:48;98771.38;;;17.52;83.30
75895;BME280;64573;50.328;15.014;2023-06-10T06:00:49;98777.66;;;17.53;83.52
75895;BME280;64573;50.328;15.014;2023-06-10T06:03:14;98783.19;;;17.58;84.38
75895;BME280;64573;50.328;15.014;2023-06-10T06:05:40;98789.34;;;17.65;84.54
75895;BME280;64573;50.328;15.014;2023-06-10T06:15:51;98783.88;;;17.83;84.16
75895;BME280;64573;50.328;15.014;2023-06-10T06:31:06;98804.47;;;18.85;81.00
75895;BME280;64573;50.328;15.014;2023-06-10T06:33:32;98795.88;;;19.16;79.50
75895;BME280;64573;50.328;15.014;2023-06-10T06:41:04;98788.50;;;19.86;75.90
75895;BME280;64573;50.328;15.014;2023-06-10T06:43:31;98796.34;;;20.16;74.95
75895;BME280;64573;50.328;15.014;2023-06-10T06:45:57;98795.66;;;20.42;73.96
75895;BME280;64573;50.328;15.014;2023-06-10T06:50:58;98798.31;;;20.37;73.82
75895;BME280;64573;50.328;15.014;2023-06-10T06:55:58;98810.97;;;19.64;77.41
75895;BME280;64573;50.328;15.014;2023-06-10T06:58:24;98818.75;;;19.72;76.76
75895;BME280;64573;50.328;15.014;2023-06-10T07:00:49;98810.19;;;19.97;76.36
75895;BME280;64573;50.328;15.014;2023-06-10T07:03:15;98821.28;;;20.07;76.73
75895;BME280;64573;50.328;15.014;2023-06-10T07:05:40;98826.47;;;20.43;75.15
75895;BME280;64573;50.328;15.014;2023-06-10T07:08:06;98822.91;;;20.76;73.17
75895;BME280;64573;50.328;15.014;2023-06-10T07:10:31;98826.47;;;21.37;72.30
75895;BME280;64573;50.328;15.014;2023-06-10T07:12:57;98819.06;;;22.13;69.07
75895;BME280;64573;50.328;15.014;2023-06-10T07:15:22;98824.31;;;21.93;70.88
75895;BME280;64573;50.328;15.014;2023-06-10T07:17:47;98830.50;;;22.10;68.95
75895;BME280;64573;50.328;15.014;2023-06-10T07:20:12;98824.00;;;21.89;67.90
75895;BME280;64573;50.328;15.014;2023-06-10T07:22:42;98836.88;;;21.67;69.10
75895;BME280;64573;50.328;15.014;2023-06-10T07:25:08;98839.41;;;21.73;68.51
75895;BME280;64573;50.328;15.014;2023-06-10T07:27:34;98834.56;;;21.81;68.56
75895;BME280;64573;50.328;15.014;2023-06-10T07:30:01;98841.91;;;21.53;69.69
75895;BME280;64573;50.328;15.014;2023-06-10T07:32:26;98845.06;;;21.67;70.43
75895;BME280;64573;50.328;15.014;2023-06-10T07:34:52;98853.16;;;21.35;72.80
75895;BME280;64573;50.328;15.014;2023-06-10T07:37:17;98851.56;;;21.39;69.32
75895;BME280;64573;50.328;15.014;2023-06-10T07:39:44;98853.25;;;21.23;70.25
75895;BME280;64573;50.328;15.014;2023-06-10T07:42:10;98855.53;;;20.54;73.86
75895;BME280;64573;50.328;15.014;2023-06-10T07:44:35;98856.59;;;20.36;73.41
75895;BME280;64573;50.328;15.014;2023-06-10T07:47:01;98861.31;;;20.74;73.86
75895;BME280;64573;50.328;15.014;2023-06-10T07:49:26;98859.72;;;20.78;73.84
75895;BME280;64573;50.328;15.014;2023-06-10T07:51:54;98860.41;;;20.52;75.05
75895;BME280;64573;50.328;15.014;2023-06-10T07:54:20;98856.44;;;20.59;76.13
75895;BME280;64573;50.328;15.014;2023-06-10T07:56:45;98857.84;;;20.79;74.71
75895;BME280;64573;50.328;15.014;2023-06-10T07:59:11;98857.97;;;20.89;74.05
75895;BME280;64573;50.328;15.014;2023-06-10T08:01:36;98855.16;;;20.84;74.72
75895;BME280;64573;50.328;15.014;2023-06-10T08:04:04;98857.59;;;20.80;73.36
75895;BME280;64573;50.328;15.014;2023-06-10T08:06:29;98861.47;;;20.68;72.86
75895;BME280;64573;50.328;15.014;2023-06-10T08:08:55;98860.13;;;20.87;72.59
75895;BME280;64573;50.328;15.014;2023-06-10T08:11:20;98864.41;;;20.83;72.65
75895;BME280;64573;50.328;15.014;2023-06-10T08:13:46;98861.97;;;20.81;73.33
75895;BME280;64573;50.328;15.014;2023-06-10T08:16:11;98852.06;;;20.75;74.42
75895;BME280;64573;50.328;15.014;2023-06-10T08:18:36;98865.09;;;20.73;74.00
75895;BME280;64573;50.328;15.014;2023-06-10T08:21:02;98865.69;;;20.75;74.15
75895;BME280;64573;50.328;15.014;2023-06-10T08:23:27;98862.38;;;20.56;73.46
75895;BME280;64573;50.328;15.014;2023-06-10T08:28:20;98867.78;;;20.51;74.38
75895;BME280;64573;50.328;15.014;2023-06-10T08:30:45;98867.44;;;20.48;75.07
75895;BME280;64573;50.328;15.014;2023-06-10T08:33:10;98867.78;;;20.51;75.44
75895;BME280;64573;50.328;15.014;2023-06-10T08:35:36;98872.59;;;20.32;76.03
75895;BME280;64573;50.328;15.014;2023-06-10T08:38:01;98880.78;;;19.59;78.63
75895;BME280;64573;50.328;15.014;2023-06-10T08:40:26;98874.94;;;19.95;77.55
75895;BME280;64573;50.328;15.014;2023-06-10T08:45:29;98867.97;;;20.33;80.10
75895;BME280;64573;50.328;15.014;2023-06-10T08:47:57;98857.59;;;20.30;81.53
75895;BME280;64573;50.328;15.014;2023-06-10T08:50:22;98867.13;;;20.44;82.67
75895;BME280;64573;50.328;15.014;2023-06-10T08:52:50;98862.09;;;20.41;81.20
75895;BME280;64573;50.328;15.014;2023-06-10T08:55:23;98867.00;;;20.56;82.12
75895;BME280;64573;50.328;15.014;2023-06-10T08:57:51;98862.31;;;20.51;80.77
75895;BME280;64573;50.328;15.014;2023-06-10T09:00:18;98875.75;;;20.75;81.39
75895;BME280;64573;50.328;15.014;2023-06-10T09:02:44;98869.06;;;20.82;79.30
75895;BME280;64573;50.328;15.014;2023-06-10T09:05:10;98865.81;;;20.85;77.67
75895;BME280;64573;50.328;15.014;2023-06-10T09:07:36;98874.94;;;20.74;76.66
75895;BME280;64573;50.328;15.014;2023-06-10T09:10:03;98873.63;;;20.60;77.59
75895;BME280;64573;50.328;15.014;2023-06-10T09:12:30;98878.34;;;20.64;77.73
75895;BME280;64573;50.328;15.014;2023-06-10T09:14:55;98881.13;;;20.70;77.80
75895;BME280;64573;50.328;15.014;2023-06-10T09:17:21;98882.94;;;20.81;77.95
75895;BME280;64573;50.328;15.014;2023-06-10T09:19:47;98870.66;;;20.45;78.40
75895;BME280;64573;50.328;15.014;2023-06-10T09:22:13;98891.59;;;20.78;78.58
75895;BME280;64573;50.328;15.014;2023-06-10T09:24:39;98878.88;;;20.83;79.59
75895;BME280;64573;50.328;15.014;2023-06-10T09:27:06;98880.47;;;20.79;79.78
75895;BME280;64573;50.328;15.014;2023-06-10T09:29:52;98879.13;;;21.20;76.90
75895;BME280;64573;50.328;15.014;2023-06-10T09:32:18;98882.03;;;21.53;75.47
75895;BME280;64573;50.328;15.014;2023-06-10T09:34:44;98885.16;;;21.23;73.50
75895;BME280;64573;50.328;15.014;2023-06-10T09:37:09;98879.03;;;20.93;74.74
75895;BME280;64573;50.328;15.014;2023-06-10T09:39:37;98877.22;;;21.21;75.04
75895;BME280;64573;50.328;15.014;2023-06-10T09:44:32;98881.69;;;21.98;72.13
75895;BME280;64573;50.328;15.014;2023-06-10T09:46:57;98874.94;;;22.06;72.24
75895;BME280;64573;50.328;15.014;2023-06-10T09:49:28;98885.84;;;22.65;71.12
75895;BME280;64573;50.328;15.014;2023-06-10T09:51:54;98886.31;;;22.89;67.36
75895;BME280;64573;50.328;15.014;2023-06-10T09:54:21;98878.00;;;23.16;67.23
75895;BME280;64573;50.328;15.014;2023-06-10T09:56:48;98880.31;;;23.34;65.61
75895;BME280;64573;50.328;15.014;2023-06-10T09:59:14;98889.00;;;23.21;66.56
75895;BME280;64573;50.328;15.014;2023-06-10T10:01:40;98886.78;;;23.70;66.50
75895;BME280;64573;50.328;15.014;2023-06-10T10:04:05;98885.31;;;23.57;65.25
75895;BME280;64573;50.328;15.014;2023-06-10T10:06:31;98885.44;;;23.78;64.72
75895;BME280;64573;50.328;15.014;2023-06-10T10:08:56;98889.81;;;23.79;64.29
75895;BME280;64573;50.328;15.014;2023-06-10T10:11:23;98887.66;;;23.96;55.71
75895;BME280;64573;50.328;15.014;2023-06-10T10:13:52;98885.59;;;23.56;59.02
75895;BME280;64573;50.328;15.014;2023-06-10T10:16:24;98885.16;;;23.89;57.09
75895;BME280;64573;50.328;15.014;2023-06-10T10:18:55;98873.47;;;24.55;58.59
75895;BME280;64573;50.328;15.014;2023-06-10T10:21:23;98878.06;;;25.21;58.80
75895;BME280;64573;50.328;15.014;2023-06-10T10:23:59;98871.72;;;25.25;53.30
75895;BME280;64573;50.328;15.014;2023-06-10T10:26:26;98863.84;;;25.14;54.92
75895;BME280;64573;50.328;15.014;2023-06-10T10:29:11;98857.53;;;24.83;54.43
75895;BME280;64573;50.328;15.014;2023-06-10T10:31:42;98864.00;;;25.38;53.80
75895;BME280;64573;50.328;15.014;2023-06-10T10:36:37;98847.69;;;25.62;52.85
75895;BME280;64573;50.328;15.014;2023-06-10T10:39:04;98854.00;;;25.62;51.38
75895;BME280;64573;50.328;15.014;2023-06-10T10:41:30;98859.66;;;25.26;54.79
75895;BME280;64573;50.328;15.014;2023-06-10T10:43:57;98854.53;;;24.74;52.67
75895;BME280;64573;50.328;15.014;2023-06-10T10:46:23;98848.09;;;25.35;54.11
75895;BME280;64573;50.328;15.014;2023-06-10T10:48:53;98843.75;;;25.83;53.06
75895;BME280;64573;50.328;15.014;2023-06-10T10:51:19;98851.41;;;25.91;53.30
75895;BME280;64573;50.328;15.014;2023-06-10T10:56:27;98848.25;;;24.12;56.26
75895;BME280;64573;50.328;15.014;2023-06-10T11:01:22;98848.78;;;24.81;55.12
75895;BME280;64573;50.328;15.014;2023-06-10T11:03:48;98836.19;;;26.09;51.04
75895;BME280;64573;50.328;15.014;2023-06-10T11:06:15;98854.50;;;25.10;53.95
75895;BME280;64573;50.328;15.014;2023-06-10T11:11:25;98836.69;;;25.07;55.60
75895;BME280;64573;50.328;15.014;2023-06-10T11:16:27;98849.84;;;25.75;53.36
75895;BME280;64573;50.328;15.014;2023-06-10T11:18:56;98835.91;;;24.40;56.20
75895;BME280;64573;50.328;15.014;2023-06-10T11:21:25;98827.09;;;23.82;58.30
75895;BME280;64573;50.328;15.014;2023-06-10T11:23:53;98831.91;;;23.45;59.52
75895;BME280;64573;50.328;15.014;2023-06-10T11:31:21;98812.91;;;25.47;49.13
75895;BME280;64573;50.328;15.014;2023-06-10T11:33:47;98816.06;;;26.77;49.68
75895;BME280;64573;50.328;15.014;2023-06-10T11:36:13;98820.00;;;27.85;40.20
75895;BME280;64573;50.328;15.014;2023-06-10T11:38:40;98814.84;;;27.97;40.29
75895;BME280;64573;50.328;15.014;2023-06-10T11:41:06;98810.66;;;27.62;44.23
75895;BME280;64573;50.328;15.014;2023-06-10T11:43:33;98800.09;;;26.79;45.18
75895;BME280;64573;50.328;15.014;2023-06-10T11:45:58;98801.97;;;26.25;46.50
75895;BME280;64573;50.328;15.014;2023-06-10T11:48:24;98789.81;;;25.97;43.90
75895;BME280;64573;50.328;15.014;2023-06-10T11:50:52;98802.69;;;26.65;43.17
75895;BME280;64573;50.328;15.014;2023-06-10T11:53:17;98820.13;;;26.55;49.17
75895;BME280;64573;50.328;15.014;2023-06-10T11:55:47;98808.38;;;25.12;54.73
75895;BME280;64573;50.328;15.014;2023-06-10T11:58:17;98814.00;;;25.95;53.63
75895;BME280;64573;50.328;15.014;2023-06-10T12:03:12;98801.25;;;25.16;56.14
75895;BME280;64573;50.328;15.014;2023-06-10T12:05:38;98801.56;;;24.94;58.86
75895;BME280;64573;50.328;15.014;2023-06-10T12:08:10;98797.84;;;24.44;58.81
75895;BME280;64573;50.328;15.014;2023-06-10T12:10:40;98778.41;;;24.35;54.85
75895;BME280;64573;50.328;15.014;2023-06-10T12:13:07;98781.09;;;24.40;50.36
75895;BME280;64573;50.328;15.014;2023-06-10T12:15:33;98772.59;;;24.47;47.63
75895;BME280;64573;50.328;15.014;2023-06-10T12:17:58;98791.47;;;24.69;47.22
75895;BME280;64573;50.328;15.014;2023-06-10T12:20:28;98778.34;;;24.66;48.81
75895;BME280;64573;50.328;15.014;2023-06-10T12:22:54;98788.16;;;26.01;47.11
75895;BME280;64573;50.328;15.014;2023-06-10T12:27:53;98776.50;;;27.20;43.52
75895;BME280;64573;50.328;15.014;2023-06-10T12:30:23;98774.66;;;27.35;41.75
75895;BME280;64573;50.328;15.014;2023-06-10T12:32:50;98791.97;;;26.39;42.04
75895;BME280;64573;50.328;15.014;2023-06-10T12:35:18;98787.28;;;25.62;48.44
75895;BME280;64573;50.328;15.014;2023-06-10T12:40:27;98781.94;;;24.46;50.01
75895;BME280;64573;50.328;15.014;2023-06-10T12:42:53;98784.66;;;24.15;49.76
75895;BME280;64573;50.328;15.014;2023-06-10T12:45:35;98796.53;;;22.70;57.26
75895;BME280;64573;50.328;15.014;2023-06-10T12:48:10;98808.94;;;22.14;59.79
75895;BME280;64573;50.328;15.014;2023-06-10T12:50:39;98802.09;;;21.57;66.26
75895;BME280;64573;50.328;15.014;2023-06-10T12:53:05;98799.97;;;21.15;68.80
75895;BME280;64573;50.328;15.014;2023-06-10T12:55:32;98808.13;;;21.32;70.13
75895;BME280;64573;50.328;15.014;2023-06-10T12:57:58;98803.09;;;21.46;69.41
75895;BME280;64573;50.328;15.014;2023-06-10T13:00:24;98795.13;;;21.66;67.04
75895;BME280;64573;50.328;15.014;2023-06-10T13:02:54;98799.44;;;21.89;67.12
75895;BME280;64573;50.328;15.014;2023-06-10T13:05:20;98799.72;;;22.20;63.67
75895;BME280;64573;50.328;15.014;2023-06-10T13:07:46;98788.19;;;22.50;59.70
75895;BME280;64573;50.328;15.014;2023-06-10T13:10:13;98789.25;;;22.86;57.93
75895;BME280;64573;50.328;15.014;2023-06-10T13:12:38;98791.25;;;23.06;57.32
75895;BME280;64573;50.328;15.014;2023-06-10T13:15:04;98785.97;;;23.57;56.24
75895;BME280;64573;50.328;15.014;2023-06-10T13:17:30;98796.31;;;23.39;59.06
75895;BME280;64573;50.328;15.014;2023-06-10T13:19:55;98788.31;;;23.23;58.61
75895;BME280;64573;50.328;15.014;2023-06-10T13:22:20;98793.84;;;23.33;59.81
75895;BME280;64573;50.328;15.014;2023-06-10T13:24:46;98790.00;;;23.34;59.32
75895;BME280;64573;50.328;15.014;2023-06-10T13:27:12;98780.97;;;22.81;61.73
75895;BME280;64573;50.328;15.014;2023-06-10T13:29:39;98785.38;;;23.50;62.98
75895;BME280;64573;50.328;15.014;2023-06-10T13:32:05;98782.66;;;23.60;59.91
75895;BME280;64573;50.328;15.014;2023-06-10T13:34:31;98777.75;;;24.69;56.79
75895;BME280;64573;50.328;15.014;2023-06-10T13:36:56;98770.00;;;25.01;56.29
75895;BME280;64573;50.328;15.014;2023-06-10T13:39:22;98775.81;;;24.85;54.55
75895;BME280;64573;50.328;15.014;2023-06-10T13:44:12;98769.16;;;26.00;50.26
75895;BME280;64573;50.328;15.014;2023-06-10T13:46:37;98763.56;;;26.15;46.66
75895;BME280;64573;50.328;15.014;2023-06-10T13:49:03;98758.38;;;26.43;47.59
75895;BME280;64573;50.328;15.014;2023-06-10T13:51:28;98744.25;;;26.78;41.69
75895;BME280;64573;50.328;15.014;2023-06-10T13:53:54;98767.25;;;26.63;42.32
75895;BME280;64573;50.328;15.014;2023-06-10T13:56:19;98760.09;;;27.34;41.61
75895;BME280;64573;50.328;15.014;2023-06-10T13:58:44;98756.88;;;26.79;40.14
75895;BME280;64573;50.328;15.014;2023-06-10T14:01:10;98765.78;;;25.79;43.17
75895;BME280;64573;50.328;15.014;2023-06-10T14:03:35;98764.34;;;25.87;41.60
75895;BME280;64573;50.328;15.014;2023-06-10T14:06:01;98763.28;;;25.82;42.52
75895;BME280;64573;50.328;15.014;2023-06-10T14:08:27;98770.19;;;25.75;44.83
75895;BME280;64573;50.328;15.014;2023-06-10T14:10:52;98758.16;;;26.34;44.12
75895;BME280;64573;50.328;15.014;2023-06-10T14:15:43;98763.44;;;27.88;38.33
75895;BME280;64573;50.328;15.014;2023-06-10T14:18:08;98755.97;;;28.07;37.01
75895;BME280;64573;50.328;15.014;2023-06-10T14:20:34;98771.69;;;27.31;40.34
75895;BME280;64573;50.328;15.014;2023-06-10T14:22:59;98764.91;;;27.24;41.65
75895;BME280;64573;50.328;15.014;2023-06-10T14:25:25;98760.41;;;27.70;38.83
75895;BME280;64573;50.328;15.014;2023-06-10T14:27:50;98764.84;;;27.66;38.89
75895;BME280;64573;50.328;15.014;2023-06-10T14:30:16;98758.03;;;27.83;38.12
75895;BME280;64573;50.328;15.014;2023-06-10T14:32:42;98757.44;;;27.05;37.57
75895;BME280;64573;50.328;15.014;2023-06-10T14:35:08;98765.03;;;26.65;39.13
75895;BME280;64573;50.328;15.014;2023-06-10T14:37:33;98771.22;;;26.18;40.69
75895;BME280;64573;50.328;15.014;2023-06-10T14:39:58;98777.41;;;25.55;39.21
75895;BME280;64573;50.328;15.014;2023-06-10T14:44:49;98784.41;;;25.33;40.51
75895;BME280;64573;50.328;15.014;2023-06-10T14:47:15;98797.03;;;25.39;41.18
75895;BME280;64573;50.328;15.014;2023-06-10T14:49:40;98792.53;;;24.93;41.68
75895;BME280;64573;50.328;15.014;2023-06-10T14:52:08;98821.38;;;24.30;42.19
75895;BME280;64573;50.328;15.014;2023-06-10T14:54:33;98803.56;;;24.22;43.40
75895;BME280;64573;50.328;15.014;2023-06-10T14:56:59;98795.38;;;24.42;43.23
75895;BME280;64573;50.328;15.014;2023-06-10T14:59:24;98801.66;;;24.17;43.58
75895;BME280;64573;50.328;15.014;2023-06-10T15:01:49;98797.00;;;24.33;41.52
75895;BME280;64573;50.328;15.014;2023-06-10T15:04:15;98796.44;;;24.52;42.64
75895;BME280;64573;50.328;15.014;2023-06-10T15:06:40;98809.59;;;24.55;42.43
75895;BME280;64573;50.328;15.014;2023-06-10T15:09:06;98809.06;;;24.22;42.58
75895;BME280;64573;50.328;15.014;2023-06-10T15:11:32;98808.25;;;24.27;43.36
75895;BME280;64573;50.328;15.014;2023-06-10T15:16:26;98795.91;;;24.29;43.02
75895;BME280;64573;50.328;15.014;2023-06-10T15:18:52;98795.09;;;24.44;42.31
75895;BME280;64573;50.328;15.014;2023-06-10T15:21:17;98790.72;;;24.33;42.51
75895;BME280;64573;50.328;15.014;2023-06-10T15:23:42;98795.06;;;24.54;43.19
75895;BME280;64573;50.328;15.014;2023-06-10T15:26:08;98791.78;;;24.47;42.90
75895;BME280;64573;50.328;15.014;2023-06-10T15:30:58;98782.84;;;25.16;41.94
75895;BME280;64573;50.328;15.014;2023-06-10T15:33:23;98791.06;;;25.21;43.04
75895;BME280;64573;50.328;15.014;2023-06-10T15:35:49;98798.81;;;24.94;42.56
75895;BME280;64573;50.328;15.014;2023-06-10T15:38:14;98799.19;;;24.57;44.02
75895;BME280;64573;50.328;15.014;2023-06-10T15:40:43;98789.59;;;24.59;46.03
75895;BME280;64573;50.328;15.014;2023-06-10T15:43:08;98791.28;;;24.35;47.93
75895;BME280;64573;50.328;15.014;2023-06-10T15:45:33;98797.81;;;24.08;47.79
75895;BME280;64573;50.328;15.014;2023-06-10T15:47:59;98791.25;;;23.99;51.09
75895;BME280;64573;50.328;15.014;2023-06-10T15:50:25;98790.16;;;24.05;49.78
75895;BME280;64573;50.328;15.014;2023-06-10T15:52:50;98785.50;;;23.90;50.33
75895;BME280;64573;50.328;15.014;2023-06-10T15:55:16;98787.38;;;23.75;49.17
75895;BME280;64573;50.328;15.014;2023-06-10T15:57:42;98775.88;;;23.83;50.50
75895;BME280;64573;50.328;15.014;2023-06-10T16:00:07;98782.72;;;23.80;50.34
75895;BME280;64573;50.328;15.014;2023-06-10T16:02:33;98777.28;;;23.85;50.85
75895;BME280;64573;50.328;15.014;2023-06-10T16:04:59;98780.56;;;24.03;50.37
75895;BME280;64573;50.328;15.014;2023-06-10T16:09:53;98776.69;;;23.63;51.23
75895;BME280;64573;50.328;15.014;2023-06-10T16:12:19;98766.78;;;23.57;49.95
75895;BME280;64573;50.328;15.014;2023-06-10T16:14:45;98776.66;;;23.58;50.74
75895;BME280;64573;50.328;15.014;2023-06-10T16:17:10;98775.78;;;23.42;52.50
75895;BME280;64573;50.328;15.014;2023-06-10T16:19:36;98781.78;;;23.29;54.39
75895;BME280;64573;50.328;15.014;2023-06-10T16:22:01;98782.91;;;23.43;54.02
75895;BME280;64573;50.328;15.014;2023-06-10T16:24:26;98779.19;;;23.85;50.79
75895;BME280;64573;50.328;15.014;2023-06-10T16:26:52;98784.88;;;24.85;48.86
75895;BME280;64573;50.328;15.014;2023-06-10T16:29:17;98784.69;;;26.20;45.24
75895;BME280;64573;50.328;15.014;2023-06-10T16:31:43;98779.47;;;27.00;43.31
75895;BME280;64573;50.328;15.014;2023-06-10T16:34:08;98784.91;;;27.10;41.27
75895;BME280;64573;50.328;15.014;2023-06-10T16:36:33;98784.84;;;27.77;39.67
75895;BME280;64573;50.328;15.014;2023-06-10T16:38:59;98799.94;;;27.98;39.96
75895;BME280;64573;50.328;15.014;2023-06-10T16:41:24;98791.44;;;27.95;39.42
75895;BME280;64573;50.328;15.014;2023-06-10T16:46:21;98786.00;;;29.43;36.91
75895;BME280;64573;50.328;15.014;2023-06-10T16:48:47;98798.69;;;29.44;36.32
75895;BME280;64573;50.328;15.014;2023-06-10T16:51:13;98800.53;;;28.14;38.75
75895;BME280;64573;50.328;15.014;2023-06-10T16:53:38;98810.91;;;28.55;39.84
75895;BME280;64573;50.328;15.014;2023-06-10T17:01:05;98795.28;;;27.37;39.55
75895;BME280;64573;50.328;15.014;2023-06-10T17:03:31;98801.50;;;26.47;43.57
75895;BME280;64573;50.328;15.014;2023-06-10T17:05:56;98804.09;;;26.62;43.10
75895;BME280;64573;50.328;15.014;2023-06-10T17:08:22;98798.81;;;26.08;41.90
75895;BME280;64573;50.328;15.014;2023-06-10T17:10:47;98796.84;;;25.74;40.93
75895;BME280;64573;50.328;15.014;2023-06-10T17:13:12;98801.38;;;25.94;41.47
75895;BME280;64573;50.328;15.014;2023-06-10T17:15:38;98804.38;;;25.48;43.05
75895;BME280;64573;50.328;15.014;2023-06-10T17:18:03;98803.81;;;25.51;42.51
75895;BME280;64573;50.328;15.014;2023-06-10T17:20:29;98793.97;;;25.45;40.76
75895;BME280;64573;50.328;15.014;2023-06-10T17:22:56;98807.69;;;25.95;41.18
75895;BME280;64573;50.328;15.014;2023-06-10T17:27:50;98811.50;;;24.69;43.69
75895;BME280;64573;50.328;15.014;2023-06-10T17:30:17;98819.22;;;24.42;43.30
75895;BME280;64573;50.328;15.014;2023-06-10T17:32:42;98823.81;;;23.96;44.02
75895;BME280;64573;50.328;15.014;2023-06-10T17:35:09;98826.28;;;23.87;44.44
75895;BME280;64573;50.328;15.014;2023-06-10T17:37:34;98819.16;;;23.76;45.29
75895;BME280;64573;50.328;15.014;2023-06-10T17:40:00;98825.75;;;24.00;45.41
75895;BME280;64573;50.328;15.014;2023-06-10T17:42:25;98828.25;;;24.27;43.38
75895;BME280;64573;50.328;15.014;2023-06-10T17:44:50;98834.25;;;24.14;43.59
75895;BME280;64573;50.328;15.014;2023-06-10T17:47:16;98824.63;;;23.81;46.25
75895;BME280;64573;50.328;15.014;2023-06-10T17:49:41;98842.75;;;23.24;48.90
75895;BME280;64573;50.328;15.014;2023-06-10T17:52:13;98834.56;;;22.77;50.85
75895;BME280;64573;50.328;15.014;2023-06-10T17:57:16;98841.56;;;22.25;54.46
75895;BME280;64573;50.328;15.014;2023-06-10T17:59:45;98848.06;;;21.92;57.33
75895;BME280;64573;50.328;15.014;2023-06-10T18:02:11;98843.75;;;22.28;52.06
75895;BME280;64573;50.328;15.014;2023-06-10T18:07:11;98857.81;;;22.42;49.93
75895;BME280;64573;50.328;15.014;2023-06-10T18:27:43;98858.75;;;21.99;50.94
75895;BME280;64573;50.328;15.014;2023-06-10T18:30:08;98861.50;;;21.99;50.26
75895;BME280;64573;50.328;15.014;2023-06-10T18:45:30;98871.66;;;21.55;49.33
75895;BME280;64573;50.328;15.014;2023-06-10T18:47:55;98867.25;;;21.10;54.43
75895;BME280;64573;50.328;15.014;2023-06-10T18:52:56;98877.88;;;20.89;50.99
75895;BME280;64573;50.328;15.014;2023-06-10T18:55:22;98881.50;;;20.95;48.04
75895;BME280;64573;50.328;15.014;2023-06-10T19:00:23;98891.75;;;20.71;49.43
75895;BME280;64573;50.328;15.014;2023-06-10T19:07:59;98900.03;;;20.43;49.94
75895;BME280;64573;50.328;15.014;2023-06-10T19:12:59;98901.56;;;20.22;48.72
75895;BME280;64573;50.328;15.014;2023-06-10T19:15:24;98913.94;;;20.29;50.30
75895;BME280;64573;50.328;15.014;2023-06-10T19:17:50;98916.41;;;20.14;50.66
75895;BME280;64573;50.328;15.014;2023-06-10T19:20:16;98921.19;;;20.07;50.42
75895;BME280;64573;50.328;15.014;2023-06-10T19:35:33;98944.38;;;19.69;49.88
75895;BME280;64573;50.328;15.014;2023-06-10T19:37:59;98937.03;;;19.70;50.07
75895;BME280;64573;50.328;15.014;2023-06-10T19:58:23;98947.88;;;19.41;48.52
75895;BME280;64573;50.328;15.014;2023-06-10T20:11:09;98954.97;;;18.95;49.86
75895;BME280;64573;50.328;15.014;2023-06-10T20:21:20;98945.69;;;18.50;50.64
75895;BME280;64573;50.328;15.014;2023-06-10T20:23:46;98953.69;;;18.44;51.75
75895;BME280;64573;50.328;15.014;2023-06-10T20:26:11;98956.25;;;18.39;50.44
75895;BME280;64573;50.328;15.014;2023-06-10T20:28:37;98950.53;;;18.59;49.84
75895;BME280;64573;50.328;15.014;2023-06-10T20:31:02;98958.75;;;18.71;50.43
75895;BME280;64573;50.328;15.014;2023-06-10T20:33:27;98948.06;;;18.58;50.10
75895;BME280;64573;50.328;15.014;2023-06-10T20:40:53;98949.53;;;18.30;51.97
75895;BME280;64573;50.328;15.014;2023-06-10T21:52:52;98967.28;;;17.48;49.88
75895;BME280;64573;50.328;15.014;2023-06-10T22:46:09;98966.69;;;16.21;55.28
75895;BME280;64573;50.328;15.014;2023-06-10T22:48:34;98963.59;;;16.17;54.84
75895;BME280;64573;50.328;15.014;2023-06-10T22:51:00;98958.94;;;16.31;54.10
75895;BME280;64573;50.328;15.014;2023-06-10T22:53:26;98950.63;;;16.26;53.86
75895;BME280;64573;50.328;15.014;2023-06-10T22:55:51;98950.38;;;16.03;55.42
75895;BME280;64573;50.328;15.014;2023-06-10T23:08:27;98941.88;;;15.92;55.20
75895;BME280;64573;50.328;15.014;2023-06-10T23:10:53;98955.53;;;15.73;55.26
75895;BME280;64573;50.328;15.014;2023-06-10T23:13:19;98952.50;;;15.94;52.87
75895;BME280;64573;50.328;15.014;2023-06-10T23:15:45;98950.50;;;16.14;49.87